sensor_id;sensor_type;location;lat;lon;timestamp;temperature;humidity
17039;DHT22;8636;55.750;13.202;2023-09-12T00:02:23;16.60;99.90
17039;DHT22;8636;55.750;13.202;2023-09-12T00:04:51;16.60;99.90
17039;DHT22;8636;55.750;13.202;2023-09-12T00:07:26;16.60;99.90
17039;DHT22;8636;55.750;13.202;2023-09-12T00:09:53;16.60;99.90
17039;DHT22;8636;55.750;13.202;2023-09-12T00:12:23;16.70;99.90
17039;DHT22;8636;55.750;13.202;2023-09-12T00:14:57;16.70;99.90
17039;DHT22;8636;55.750;13.202;2023-09-12T00:17:27;16.70;99.90
17039;DHT22;8636;55.750;13.202;2023-09-12T00:19:55;16.70;99.90
17039;DHT22;8636;55.750;13.202;2023-09-12T00:22:30;16.70;99.90
17039;DHT22;8636;55.750;13.202;2023-09-12T00:24:58;16.70;99.90
17039;DHT22;8636;55.750;13.202;2023-09-12T00:27:26;16.70;99.90
17039;DHT22;8636;55.750;13.202;2023-09-12T00:30:00;16.70;99.90
17039;DHT22;8636;55.750;13.202;2023-09-12T00:32:30;16.80;99.90
17039;DHT22;8636;55.750;13.202;2023-09-12T00:34:58;16.70;99.90
17039;DHT22;8636;55.750;13.202;2023-09-12T00:37:33;16.70;99.90
17039;DHT22;8636;55.750;13.202;2023-09-12T00:40:13;16.70;99.90
17039;DHT22;8636;55.750;13.202;2023-09-12T00:42:48;16.60;99.90
17039;DHT22;8636;55.750;13.202;2023-09-12T00:45:17;16.60;99.90
17039;DHT22;8636;55.750;13.202;2023-09-12T00:47:46;16.50;99.90
17039;DHT22;8636;55.750;13.202;2023-09-12T00:50:22;16.50;99.90
17039;DHT22;8636;55.750;13.202;2023-09-12T00:52:53;16.40;99.90
17039;DHT22;8636;55.750;13.202;2023-09-12T00:55:30;16.40;99.90
17039;DHT22;8636;55.750;13.202;2023-09-12T00:58:00;16.40;99.90
17039;DHT22;8636;55.750;13.202;2023-09-12T01:00:35;16.40;99.90
17039;DHT22;8636;55.750;13.202;2023-09-12T01:03:05;16.40;99.90
17039;DHT22;8636;55.750;13.202;2023-09-12T01:05:33;16.30;99.90
17039;DHT22;8636;55.750;13.202;2023-09-12T01:08:09;16.30;99.90
17039;DHT22;8636;55.750;13.202;2023-09-12T01:10:37;16.20;99.90
17039;DHT22;8636;55.750;13.202;2023-09-12T01:13:05;16.20;99.90
17039;DHT22;8636;55.750;13.202;2023-09-12T01:15:40;16.10;99.90
17039;DHT22;8636;55.750;13.202;2023-09-12T01:18:10;16.10;99.90
17039;DHT22;8636;55.750;13.202;2023-09-12T01:20:42;16.00;99.90
17039;DHT22;8636;55.750;13.202;2023-09-12T01:23:39;15.90;99.90
17039;DHT22;8636;55.750;13.202;2023-09-12T01:26:21;15.80;99.90
17039;DHT22;8636;55.750;13.202;2023-09-12T01:29:02;15.90;99.90
17039;DHT22;8636;55.750;13.202;2023-09-12T01:31:32;15.80;99.90
17039;DHT22;8636;55.750;13.202;2023-09-12T01:34:10;15.80;99.90
17039;DHT22;8636;55.750;13.202;2023-09-12T01:36:38;15.80;99.90
17039;DHT22;8636;55.750;13.202;2023-09-12T01:39:06;15.80;99.90
17039;DHT22;8636;55.750;13.202;2023-09-12T01:41:43;15.80;99.90
17039;DHT22;8636;55.750;13.202;2023-09-12T01:44:24;15.70;99.90
17039;DHT22;8636;55.750;13.202;2023-09-12T01:47:03;15.70;99.90
17039;DHT22;8636;55.750;13.202;2023-09-12T01:49:33;15.70;99.90
17039;DHT22;8636;55.750;13.202;2023-09-12T01:52:08;15.70;99.90
17039;DHT22;8636;55.750;13.202;2023-09-12T01:54:37;15.80;99.90
17039;DHT22;8636;55.750;13.202;2023-09-12T01:57:06;15.80;99.90
17039;DHT22;8636;55.750;13.202;2023-09-12T01:59:42;15.80;99.90
17039;DHT22;8636;55.750;13.202;2023-09-12T02:02:10;15.90;99.90
17039;DHT22;8636;55.750;13.202;2023-09-12T02:04:38;16.00;99.90
17039;DHT22;8636;55.750;13.202;2023-09-12T02:07:13;16.10;99.90
17039;DHT22;8636;55.750;13.202;2023-09-12T02:09:40;16.20;99.90
17039;DHT22;8636;55.750;13.202;2023-09-12T02:12:08;16.30;99.90
17039;DHT22;8636;55.750;13.202;2023-09-12T02:14:44;16.30;99.90
17039;DHT22;8636;55.750;13.202;2023-09-12T02:17:12;16.50;99.90
17039;DHT22;8636;55.750;13.202;2023-09-12T02:19:42;16.60;99.90
17039;DHT22;8636;55.750;13.202;2023-09-12T02:22:17;16.60;99.90
17039;DHT22;8636;55.750;13.202;2023-09-12T02:24:44;16.70;99.90
17039;DHT22;8636;55.750;13.202;2023-09-12T02:27:12;16.70;99.90
17039;DHT22;8636;55.750;13.202;2023-09-12T02:29:48;16.70;99.90
17039;DHT22;8636;55.750;13.202;2023-09-12T02:32:16;16.70;99.90
17039;DHT22;8636;55.750;13.202;2023-09-12T02:34:44;16.60;99.90
17039;DHT22;8636;55.750;13.202;2023-09-12T02:37:19;16.70;99.90
17039;DHT22;8636;55.750;13.202;2023-09-12T02:39:53;16.70;99.90
17039;DHT22;8636;55.750;13.202;2023-09-12T02:42:28;16.70;99.90
17039;DHT22;8636;55.750;13.202;2023-09-12T02:44:57;16.80;99.90
17039;DHT22;8636;55.750;13.202;2023-09-12T02:47:25;16.80;99.90
17039;DHT22;8636;55.750;13.202;2023-09-12T02:50:00;16.90;99.90
17039;DHT22;8636;55.750;13.202;2023-09-12T02:52:27;16.90;99.90
17039;DHT22;8636;55.750;13.202;2023-09-12T02:54:55;17.00;99.90
17039;DHT22;8636;55.750;13.202;2023-09-12T02:57:30;17.00;99.90
17039;DHT22;8636;55.750;13.202;2023-09-12T02:59:59;17.00;99.90
17039;DHT22;8636;55.750;13.202;2023-09-12T03:02:27;17.00;99.90
17039;DHT22;8636;55.750;13.202;2023-09-12T03:05:02;17.00;99.90
17039;DHT22;8636;55.750;13.202;2023-09-12T03:07:30;17.10;99.90
17039;DHT22;8636;55.750;13.202;2023-09-12T03:09:58;17.10;99.90
17039;DHT22;8636;55.750;13.202;2023-09-12T03:12:33;17.20;99.90
17039;DHT22;8636;55.750;13.202;2023-09-12T03:15:05;17.40;99.90
17039;DHT22;8636;55.750;13.202;2023-09-12T03:17:40;17.40;99.90
17039;DHT22;8636;55.750;13.202;2023-09-12T03:20:08;17.50;99.90
17039;DHT22;8636;55.750;13.202;2023-09-12T03:22:37;17.50;99.90
17039;DHT22;8636;55.750;13.202;2023-09-12T03:25:12;17.60;99.90
17039;DHT22;8636;55.750;13.202;2023-09-12T03:27:40;17.50;99.90
17039;DHT22;8636;55.750;13.202;2023-09-12T03:30:11;17.50;99.90
17039;DHT22;8636;55.750;13.202;2023-09-12T03:32:46;17.50;99.90
17039;DHT22;8636;55.750;13.202;2023-09-12T03:35:14;17.50;99.90
17039;DHT22;8636;55.750;13.202;2023-09-12T03:37:42;17.40;99.90
17039;DHT22;8636;55.750;13.202;2023-09-12T03:40:16;17.40;99.90
17039;DHT22;8636;55.750;13.202;2023-09-12T03:42:51;17.40;99.90
17039;DHT22;8636;55.750;13.202;2023-09-12T03:45:27;17.40;99.90
17039;DHT22;8636;55.750;13.202;2023-09-12T03:47:55;17.40;99.90
17039;DHT22;8636;55.750;13.202;2023-09-12T03:50:23;17.40;99.90
17039;DHT22;8636;55.750;13.202;2023-09-12T03:52:57;17.40;99.90
17039;DHT22;8636;55.750;13.202;2023-09-12T03:55:25;17.30;99.90
17039;DHT22;8636;55.750;13.202;2023-09-12T03:57:53;17.30;99.90
17039;DHT22;8636;55.750;13.202;2023-09-12T04:00:29;17.30;99.90
17039;DHT22;8636;55.750;13.202;2023-09-12T04:02:57;17.40;99.90
17039;DHT22;8636;55.750;13.202;2023-09-12T04:05:25;17.30;99.90
17039;DHT22;8636;55.750;13.202;2023-09-12T04:07:59;17.30;99.90
17039;DHT22;8636;55.750;13.202;2023-09-12T04:10:28;17.40;99.90
17039;DHT22;8636;55.750;13.202;2023-09-12T04:12:56;17.30;99.90
17039;DHT22;8636;55.750;13.202;2023-09-12T04:15:32;17.30;99.90
17039;DHT22;8636;55.750;13.202;2023-09-12T04:18:00;17.30;99.90
17039;DHT22;8636;55.750;13.202;2023-09-12T04:20:28;17.30;99.90
17039;DHT22;8636;55.750;13.202;2023-09-12T04:23:03;17.30;99.90
17039;DHT22;8636;55.750;13.202;2023-09-12T04:25:31;17.30;99.90
17039;DHT22;8636;55.750;13.202;2023-09-12T04:28:00;17.40;99.90
17039;DHT22;8636;55.750;13.202;2023-09-12T04:30:36;17.40;99.90
17039;DHT22;8636;55.750;13.202;2023-09-12T04:33:06;17.40;99.90
17039;DHT22;8636;55.750;13.202;2023-09-12T04:35:34;17.50;99.90
17039;DHT22;8636;55.750;13.202;2023-09-12T04:38:09;17.60;99.90
17039;DHT22;8636;55.750;13.202;2023-09-12T04:40:43;17.70;99.90
17039;DHT22;8636;55.750;13.202;2023-09-12T04:43:36;17.70;99.90
17039;DHT22;8636;55.750;13.202;2023-09-12T04:46:05;17.70;99.90
17039;DHT22;8636;55.750;13.202;2023-09-12T04:48:33;17.80;99.90
17039;DHT22;8636;55.750;13.202;2023-09-12T04:51:08;17.90;99.90
17039;DHT22;8636;55.750;13.202;2023-09-12T04:53:36;17.90;99.90
17039;DHT22;8636;55.750;13.202;2023-09-12T04:56:04;17.90;99.90
17039;DHT22;8636;55.750;13.202;2023-09-12T04:58:39;17.80;99.90
17039;DHT22;8636;55.750;13.202;2023-09-12T05:01:08;17.90;99.90
17039;DHT22;8636;55.750;13.202;2023-09-12T05:03:37;17.90;99.90
17039;DHT22;8636;55.750;13.202;2023-09-12T05:06:12;17.90;99.90
17039;DHT22;8636;55.750;13.202;2023-09-12T05:08:42;17.90;99.90
17039;DHT22;8636;55.750;13.202;2023-09-12T05:11:11;17.90;99.90
17039;DHT22;8636;55.750;13.202;2023-09-12T05:13:45;17.90;99.90
17039;DHT22;8636;55.750;13.202;2023-09-12T05:16:16;17.90;99.90
17039;DHT22;8636;55.750;13.202;2023-09-12T05:18:45;18.00;99.90
17039;DHT22;8636;55.750;13.202;2023-09-12T05:21:20;18.10;99.90
17039;DHT22;8636;55.750;13.202;2023-09-12T05:23:48;18.10;99.90
17039;DHT22;8636;55.750;13.202;2023-09-12T05:26:16;18.10;99.90
17039;DHT22;8636;55.750;13.202;2023-09-12T05:28:50;18.10;99.90
17039;DHT22;8636;55.750;13.202;2023-09-12T05:31:19;18.10;99.90
17039;DHT22;8636;55.750;13.202;2023-09-12T05:33:47;18.10;99.90
17039;DHT22;8636;55.750;13.202;2023-09-12T05:36:22;18.20;99.90
17039;DHT22;8636;55.750;13.202;2023-09-12T05:38:50;18.30;99.90
17039;DHT22;8636;55.750;13.202;2023-09-12T05:41:18;18.40;99.90
17039;DHT22;8636;55.750;13.202;2023-09-12T05:43:59;18.40;99.90
17039;DHT22;8636;55.750;13.202;2023-09-12T05:46:28;18.40;99.90
17039;DHT22;8636;55.750;13.202;2023-09-12T05:49:03;18.40;99.90
17039;DHT22;8636;55.750;13.202;2023-09-12T05:51:32;18.40;99.90
17039;DHT22;8636;55.750;13.202;2023-09-12T05:54:00;18.40;99.90
17039;DHT22;8636;55.750;13.202;2023-09-12T05:56:35;18.40;99.90
17039;DHT22;8636;55.750;13.202;2023-09-12T05:59:03;18.40;99.90
17039;DHT22;8636;55.750;13.202;2023-09-12T06:01:32;18.40;99.90
17039;DHT22;8636;55.750;13.202;2023-09-12T06:04:07;18.40;99.90
17039;DHT22;8636;55.750;13.202;2023-09-12T06:06:36;18.40;99.90
17039;DHT22;8636;55.750;13.202;2023-09-12T06:09:05;18.40;99.90
17039;DHT22;8636;55.750;13.202;2023-09-12T06:11:42;18.40;99.90
17039;DHT22;8636;55.750;13.202;2023-09-12T06:14:10;18.30;99.90
17039;DHT22;8636;55.750;13.202;2023-09-12T06:16:41;18.30;99.90
17039;DHT22;8636;55.750;13.202;2023-09-12T06:19:16;18.30;99.90
17039;DHT22;8636;55.750;13.202;2023-09-12T06:21:47;18.30;99.90
17039;DHT22;8636;55.750;13.202;2023-09-12T06:24:17;18.30;99.90
17039;DHT22;8636;55.750;13.202;2023-09-12T06:26:52;18.30;99.90
17039;DHT22;8636;55.750;13.202;2023-09-12T06:29:20;18.30;99.90
17039;DHT22;8636;55.750;13.202;2023-09-12T06:31:49;18.30;99.90
17039;DHT22;8636;55.750;13.202;2023-09-12T06:34:24;18.30;99.90
17039;DHT22;8636;55.750;13.202;2023-09-12T06:36:51;18.20;99.90
17039;DHT22;8636;55.750;13.202;2023-09-12T06:39:19;18.20;99.90
17039;DHT22;8636;55.750;13.202;2023-09-12T06:41:54;18.20;99.90
17039;DHT22;8636;55.750;13.202;2023-09-12T06:44:29;18.30;99.90
17039;DHT22;8636;55.750;13.202;2023-09-12T06:47:05;18.30;99.90
17039;DHT22;8636;55.750;13.202;2023-09-12T06:49:33;18.30;99.90
17039;DHT22;8636;55.750;13.202;2023-09-12T06:52:03;18.30;99.90
17039;DHT22;8636;55.750;13.202;2023-09-12T06:54:38;18.40;99.90
17039;DHT22;8636;55.750;13.202;2023-09-12T06:57:06;18.40;99.90
17039;DHT22;8636;55.750;13.202;2023-09-12T06:59:34;18.50;99.90
17039;DHT22;8636;55.750;13.202;2023-09-12T07:02:10;18.50;99.90
17039;DHT22;8636;55.750;13.202;2023-09-12T07:04:39;18.50;99.90
17039;DHT22;8636;55.750;13.202;2023-09-12T07:07:08;18.50;99.90
17039;DHT22;8636;55.750;13.202;2023-09-12T07:09:43;18.50;99.90
17039;DHT22;8636;55.750;13.202;2023-09-12T07:12:11;18.40;99.90
17039;DHT22;8636;55.750;13.202;2023-09-12T07:14:39;18.40;99.90
17039;DHT22;8636;55.750;13.202;2023-09-12T07:17:14;18.40;99.90
17039;DHT22;8636;55.750;13.202;2023-09-12T07:19:42;18.40;99.90
17039;DHT22;8636;55.750;13.202;2023-09-12T07:22:11;18.40;99.90
17039;DHT22;8636;55.750;13.202;2023-09-12T07:24:45;18.60;99.90
17039;DHT22;8636;55.750;13.202;2023-09-12T07:27:13;18.60;99.90
17039;DHT22;8636;55.750;13.202;2023-09-12T07:29:41;18.70;99.90
17039;DHT22;8636;55.750;13.202;2023-09-12T07:32:17;18.80;99.90
17039;DHT22;8636;55.750;13.202;2023-09-12T07:34:46;19.00;99.90
17039;DHT22;8636;55.750;13.202;2023-09-12T07:37:15;19.10;99.90
17039;DHT22;8636;55.750;13.202;2023-09-12T07:39:56;19.20;99.90
17039;DHT22;8636;55.750;13.202;2023-09-12T07:42:43;19.30;99.90
17039;DHT22;8636;55.750;13.202;2023-09-12T07:45:17;19.40;99.90
17039;DHT22;8636;55.750;13.202;2023-09-12T07:47:48;19.50;99.90
17039;DHT22;8636;55.750;13.202;2023-09-12T07:50:17;19.60;99.90
17039;DHT22;8636;55.750;13.202;2023-09-12T07:52:52;19.60;99.90
17039;DHT22;8636;55.750;13.202;2023-09-12T07:55:23;19.50;99.90
17039;DHT22;8636;55.750;13.202;2023-09-12T07:57:52;19.50;99.90
17039;DHT22;8636;55.750;13.202;2023-09-12T08:00:27;19.50;99.90
17039;DHT22;8636;55.750;13.202;2023-09-12T08:02:56;19.50;99.90
17039;DHT22;8636;55.750;13.202;2023-09-12T08:05:24;19.40;99.90
17039;DHT22;8636;55.750;13.202;2023-09-12T08:07:59;19.30;99.90
17039;DHT22;8636;55.750;13.202;2023-09-12T08:10:27;19.40;99.90
17039;DHT22;8636;55.750;13.202;2023-09-12T08:12:56;19.20;99.90
17039;DHT22;8636;55.750;13.202;2023-09-12T08:15:30;19.20;99.90
17039;DHT22;8636;55.750;13.202;2023-09-12T08:18:01;19.20;99.90
17039;DHT22;8636;55.750;13.202;2023-09-12T08:20:30;19.20;99.90
17039;DHT22;8636;55.750;13.202;2023-09-12T08:23:04;19.10;99.90
17039;DHT22;8636;55.750;13.202;2023-09-12T08:25:33;19.20;99.90
17039;DHT22;8636;55.750;13.202;2023-09-12T08:28:01;19.30;99.90
17039;DHT22;8636;55.750;13.202;2023-09-12T08:30:36;19.40;99.90
17039;DHT22;8636;55.750;13.202;2023-09-12T08:33:06;19.50;99.90
17039;DHT22;8636;55.750;13.202;2023-09-12T08:35:35;19.60;99.90
17039;DHT22;8636;55.750;13.202;2023-09-12T08:38:10;19.70;99.90
17039;DHT22;8636;55.750;13.202;2023-09-12T08:40:49;19.80;99.90
17039;DHT22;8636;55.750;13.202;2023-09-12T08:43:31;19.80;99.90
17039;DHT22;8636;55.750;13.202;2023-09-12T08:45:59;19.80;99.90
17039;DHT22;8636;55.750;13.202;2023-09-12T08:48:31;19.70;99.90
17039;DHT22;8636;55.750;13.202;2023-09-12T08:51:07;19.80;99.90
17039;DHT22;8636;55.750;13.202;2023-09-12T08:53:36;20.00;99.90
17039;DHT22;8636;55.750;13.202;2023-09-12T08:56:04;20.20;99.90
17039;DHT22;8636;55.750;13.202;2023-09-12T08:58:39;20.30;99.90
17039;DHT22;8636;55.750;13.202;2023-09-12T09:01:09;20.60;99.90
17039;DHT22;8636;55.750;13.202;2023-09-12T09:03:39;20.70;99.90
17039;DHT22;8636;55.750;13.202;2023-09-12T09:06:16;20.90;99.90
17039;DHT22;8636;55.750;13.202;2023-09-12T09:08:45;20.80;99.90
17039;DHT22;8636;55.750;13.202;2023-09-12T09:11:13;20.80;99.90
17039;DHT22;8636;55.750;13.202;2023-09-12T09:13:47;20.90;99.90
17039;DHT22;8636;55.750;13.202;2023-09-12T09:16:16;20.90;99.90
17039;DHT22;8636;55.750;13.202;2023-09-12T09:18:54;21.20;99.90
17039;DHT22;8636;55.750;13.202;2023-09-12T09:21:30;21.40;99.90
17039;DHT22;8636;55.750;13.202;2023-09-12T09:24:02;21.70;99.90
17039;DHT22;8636;55.750;13.202;2023-09-12T09:26:42;21.60;99.90
17039;DHT22;8636;55.750;13.202;2023-09-12T09:29:13;21.40;99.90
17039;DHT22;8636;55.750;13.202;2023-09-12T09:31:49;21.10;99.90
17039;DHT22;8636;55.750;13.202;2023-09-12T09:34:20;21.10;99.90
17039;DHT22;8636;55.750;13.202;2023-09-12T09:36:57;21.00;99.90
17039;DHT22;8636;55.750;13.202;2023-09-12T09:39:27;21.10;99.90
17039;DHT22;8636;55.750;13.202;2023-09-12T09:41:56;21.40;99.90
17039;DHT22;8636;55.750;13.202;2023-09-12T09:44:32;21.70;99.90
17039;DHT22;8636;55.750;13.202;2023-09-12T09:47:00;22.10;99.90
17039;DHT22;8636;55.750;13.202;2023-09-12T09:49:34;22.40;99.90
17039;DHT22;8636;55.750;13.202;2023-09-12T09:52:09;22.70;99.90
17039;DHT22;8636;55.750;13.202;2023-09-12T09:54:43;22.30;99.90
17039;DHT22;8636;55.750;13.202;2023-09-12T09:57:18;22.10;99.90
17039;DHT22;8636;55.750;13.202;2023-09-12T09:59:48;22.10;99.90
17039;DHT22;8636;55.750;13.202;2023-09-12T10:02:18;22.10;99.90
17039;DHT22;8636;55.750;13.202;2023-09-12T10:04:58;22.00;99.90
17039;DHT22;8636;55.750;13.202;2023-09-12T10:07:28;21.90;99.90
17039;DHT22;8636;55.750;13.202;2023-09-12T10:10:04;21.90;99.90
17039;DHT22;8636;55.750;13.202;2023-09-12T10:12:35;21.70;99.90
17039;DHT22;8636;55.750;13.202;2023-09-12T10:15:05;21.80;99.90
17039;DHT22;8636;55.750;13.202;2023-09-12T10:17:42;21.60;99.90
17039;DHT22;8636;55.750;13.202;2023-09-12T10:20:18;21.40;99.90
17039;DHT22;8636;55.750;13.202;2023-09-12T10:23:03;21.40;99.90
17039;DHT22;8636;55.750;13.202;2023-09-12T10:25:36;21.30;99.90
17039;DHT22;8636;55.750;13.202;2023-09-12T10:28:13;21.20;99.90
17039;DHT22;8636;55.750;13.202;2023-09-12T10:30:43;21.20;99.90
17039;DHT22;8636;55.750;13.202;2023-09-12T10:33:19;21.20;99.90
17039;DHT22;8636;55.750;13.202;2023-09-12T10:35:50;21.20;99.90
17039;DHT22;8636;55.750;13.202;2023-09-12T10:38:26;21.20;99.90
17039;DHT22;8636;55.750;13.202;2023-09-12T10:41:04;21.10;99.90
17039;DHT22;8636;55.750;13.202;2023-09-12T10:43:40;21.10;99.90
17039;DHT22;8636;55.750;13.202;2023-09-12T10:46:09;21.00;99.90
17039;DHT22;8636;55.750;13.202;2023-09-12T10:48:37;20.90;99.90
17039;DHT22;8636;55.750;13.202;2023-09-12T10:51:16;20.80;99.90
17039;DHT22;8636;55.750;13.202;2023-09-12T10:53:45;20.80;99.90
17039;DHT22;8636;55.750;13.202;2023-09-12T10:56:22;20.60;99.90
17039;DHT22;8636;55.750;13.202;2023-09-12T10:59:10;20.40;99.90
17039;DHT22;8636;55.750;13.202;2023-09-12T11:01:46;20.40;99.90
17039;DHT22;8636;55.750;13.202;2023-09-12T11:04:32;20.40;99.90
17039;DHT22;8636;55.750;13.202;2023-09-12T11:07:32;20.40;99.90
17039;DHT22;8636;55.750;13.202;2023-09-12T11:10:17;20.60;99.90
17039;DHT22;8636;55.750;13.202;2023-09-12T11:12:53;20.90;99.90
17039;DHT22;8636;55.750;13.202;2023-09-12T11:15:23;21.30;99.90
17039;DHT22;8636;55.750;13.202;2023-09-12T11:18:01;21.50;99.90
17039;DHT22;8636;55.750;13.202;2023-09-12T11:20:50;21.50;99.90
17039;DHT22;8636;55.750;13.202;2023-09-12T11:23:26;21.50;99.90
17039;DHT22;8636;55.750;13.202;2023-09-12T11:26:04;21.50;99.90
17039;DHT22;8636;55.750;13.202;2023-09-12T11:28:40;21.70;99.90
17039;DHT22;8636;55.750;13.202;2023-09-12T11:31:11;21.70;99.90
17039;DHT22;8636;55.750;13.202;2023-09-12T11:33:40;21.90;99.90
17039;DHT22;8636;55.750;13.202;2023-09-12T11:36:18;22.10;99.90
17039;DHT22;8636;55.750;13.202;2023-09-12T11:38:50;22.60;99.90
17039;DHT22;8636;55.750;13.202;2023-09-12T11:41:43;23.40;99.90
17039;DHT22;8636;55.750;13.202;2023-09-12T11:44:25;23.60;99.90
17039;DHT22;8636;55.750;13.202;2023-09-12T11:47:02;23.60;99.90
17039;DHT22;8636;55.750;13.202;2023-09-12T11:49:37;23.30;99.90
17039;DHT22;8636;55.750;13.202;2023-09-12T11:52:13;23.40;99.90
17039;DHT22;8636;55.750;13.202;2023-09-12T11:54:44;23.10;99.90
17039;DHT22;8636;55.750;13.202;2023-09-12T11:57:19;22.80;99.90
17039;DHT22;8636;55.750;13.202;2023-09-12T11:59:49;22.60;99.90
17039;DHT22;8636;55.750;13.202;2023-09-12T12:02:18;22.50;99.90
17039;DHT22;8636;55.750;13.202;2023-09-12T12:04:53;22.70;99.90
17039;DHT22;8636;55.750;13.202;2023-09-12T12:07:24;22.90;99.90
17039;DHT22;8636;55.750;13.202;2023-09-12T12:09:53;23.00;99.90
17039;DHT22;8636;55.750;13.202;2023-09-12T12:12:27;23.20;99.90
17039;DHT22;8636;55.750;13.202;2023-09-12T12:14:55;23.30;99.90
17039;DHT22;8636;55.750;13.202;2023-09-12T12:17:23;23.40;99.90
17039;DHT22;8636;55.750;13.202;2023-09-12T12:19:57;23.70;99.90
17039;DHT22;8636;55.750;13.202;2023-09-12T12:22:25;23.80;99.90
17039;DHT22;8636;55.750;13.202;2023-09-12T12:24:54;23.60;99.90
17039;DHT22;8636;55.750;13.202;2023-09-12T12:27:29;23.40;99.90
17039;DHT22;8636;55.750;13.202;2023-09-12T12:29:57;23.40;99.90
17039;DHT22;8636;55.750;13.202;2023-09-12T12:32:25;23.20;99.90
17039;DHT22;8636;55.750;13.202;2023-09-12T12:35:00;23.00;99.90
17039;DHT22;8636;55.750;13.202;2023-09-12T12:37:50;23.20;99.90
17039;DHT22;8636;55.750;13.202;2023-09-12T12:40:37;23.20;99.90
17039;DHT22;8636;55.750;13.202;2023-09-12T12:43:21;23.40;99.90
17039;DHT22;8636;55.750;13.202;2023-09-12T12:45:57;23.60;99.90
17039;DHT22;8636;55.750;13.202;2023-09-12T12:48:32;23.50;99.90
17039;DHT22;8636;55.750;13.202;2023-09-12T12:51:13;23.50;99.90
17039;DHT22;8636;55.750;13.202;2023-09-12T12:53:45;23.40;99.90
17039;DHT22;8636;55.750;13.202;2023-09-12T12:56:22;23.40;99.90
17039;DHT22;8636;55.750;13.202;2023-09-12T12:58:52;23.20;99.90
17039;DHT22;8636;55.750;13.202;2023-09-12T13:01:29;23.10;99.90
17039;DHT22;8636;55.750;13.202;2023-09-12T13:03:59;23.00;99.90
17039;DHT22;8636;55.750;13.202;2023-09-12T13:06:27;22.90;99.90
17039;DHT22;8636;55.750;13.202;2023-09-12T13:09:04;22.90;99.90
17039;DHT22;8636;55.750;13.202;2023-09-12T13:11:34;22.90;99.90
17039;DHT22;8636;55.750;13.202;2023-09-12T13:14:03;22.80;99.90
17039;DHT22;8636;55.750;13.202;2023-09-12T13:16:42;23.00;99.90
17039;DHT22;8636;55.750;13.202;2023-09-12T13:19:10;22.80;99.90
17039;DHT22;8636;55.750;13.202;2023-09-12T13:21:39;22.80;99.90
17039;DHT22;8636;55.750;13.202;2023-09-12T13:24:15;23.00;99.90
17039;DHT22;8636;55.750;13.202;2023-09-12T13:26:44;23.20;99.90
17039;DHT22;8636;55.750;13.202;2023-09-12T13:29:12;23.30;99.90
17039;DHT22;8636;55.750;13.202;2023-09-12T13:31:47;23.30;99.90
17039;DHT22;8636;55.750;13.202;2023-09-12T13:34:15;23.10;99.90
17039;DHT22;8636;55.750;13.202;2023-09-12T13:36:45;23.20;99.90
17039;DHT22;8636;55.750;13.202;2023-09-12T13:39:35;23.50;99.90
17039;DHT22;8636;55.750;13.202;2023-09-12T13:42:06;23.70;99.90
17039;DHT22;8636;55.750;13.202;2023-09-12T13:44:48;23.70;99.90
17039;DHT22;8636;55.750;13.202;2023-09-12T13:47:16;23.70;99.90
17039;DHT22;8636;55.750;13.202;2023-09-12T13:49:55;23.80;99.90
17039;DHT22;8636;55.750;13.202;2023-09-12T13:52:25;23.90;99.90
17039;DHT22;8636;55.750;13.202;2023-09-12T13:54:53;24.00;99.90
17039;DHT22;8636;55.750;13.202;2023-09-12T13:57:29;23.90;99.90
17039;DHT22;8636;55.750;13.202;2023-09-12T14:00:02;23.80;99.90
17039;DHT22;8636;55.750;13.202;2023-09-12T14:02:37;23.70;99.90
17039;DHT22;8636;55.750;13.202;2023-09-12T14:05:05;23.40;99.90
17039;DHT22;8636;55.750;13.202;2023-09-12T14:07:40;23.10;99.90
17039;DHT22;8636;55.750;13.202;2023-09-12T14:10:15;23.10;99.90
17039;DHT22;8636;55.750;13.202;2023-09-12T14:13:03;23.30;99.90
17039;DHT22;8636;55.750;13.202;2023-09-12T14:15:48;23.40;99.90
17039;DHT22;8636;55.750;13.202;2023-09-12T14:18:18;23.30;99.90
17039;DHT22;8636;55.750;13.202;2023-09-12T14:20:54;23.20;99.90
17039;DHT22;8636;55.750;13.202;2023-09-12T14:23:22;23.00;99.90
17039;DHT22;8636;55.750;13.202;2023-09-12T14:25:52;23.00;99.90
17039;DHT22;8636;55.750;13.202;2023-09-12T14:28:27;23.00;99.90
17039;DHT22;8636;55.750;13.202;2023-09-12T14:30:59;22.90;99.90
17039;DHT22;8636;55.750;13.202;2023-09-12T14:33:34;22.90;99.90
17039;DHT22;8636;55.750;13.202;2023-09-12T14:36:02;22.70;99.90
17039;DHT22;8636;55.750;13.202;2023-09-12T14:38:31;22.70;99.90
17039;DHT22;8636;55.750;13.202;2023-09-12T14:41:13;22.70;99.90
17039;DHT22;8636;55.750;13.202;2023-09-12T14:43:55;22.60;99.90
17039;DHT22;8636;55.750;13.202;2023-09-12T14:46:30;22.50;99.90
17039;DHT22;8636;55.750;13.202;2023-09-12T14:48:58;22.40;99.90
17039;DHT22;8636;55.750;13.202;2023-09-12T14:51:28;22.40;99.90
17039;DHT22;8636;55.750;13.202;2023-09-12T14:54:04;22.40;99.90
17039;DHT22;8636;55.750;13.202;2023-09-12T14:56:33;22.30;99.90
17039;DHT22;8636;55.750;13.202;2023-09-12T14:59:04;22.30;99.90
17039;DHT22;8636;55.750;13.202;2023-09-12T15:01:39;22.30;99.90
17039;DHT22;8636;55.750;13.202;2023-09-12T15:04:07;22.40;99.90
17039;DHT22;8636;55.750;13.202;2023-09-12T15:06:35;22.40;99.90
17039;DHT22;8636;55.750;13.202;2023-09-12T15:09:11;22.40;99.90
17039;DHT22;8636;55.750;13.202;2023-09-12T15:11:39;22.50;99.90
17039;DHT22;8636;55.750;13.202;2023-09-12T15:14:08;22.40;99.90
17039;DHT22;8636;55.750;13.202;2023-09-12T15:16:43;22.30;99.90
17039;DHT22;8636;55.750;13.202;2023-09-12T15:19:11;22.30;99.90
17039;DHT22;8636;55.750;13.202;2023-09-12T15:21:39;22.20;99.90
17039;DHT22;8636;55.750;13.202;2023-09-12T15:24:13;22.10;99.90
17039;DHT22;8636;55.750;13.202;2023-09-12T15:26:41;22.00;99.90
17039;DHT22;8636;55.750;13.202;2023-09-12T15:29:10;21.90;99.90
17039;DHT22;8636;55.750;13.202;2023-09-12T15:31:45;21.80;99.90
17039;DHT22;8636;55.750;13.202;2023-09-12T15:34:13;21.70;99.90
17039;DHT22;8636;55.750;13.202;2023-09-12T15:36:44;21.70;99.90
17039;DHT22;8636;55.750;13.202;2023-09-12T15:39:19;21.70;99.90
17039;DHT22;8636;55.750;13.202;2023-09-12T15:41:53;21.50;99.90
17039;DHT22;8636;55.750;13.202;2023-09-12T15:44:29;21.50;99.90
17039;DHT22;8636;55.750;13.202;2023-09-12T15:46:57;21.40;99.90
17039;DHT22;8636;55.750;13.202;2023-09-12T15:49:44;21.30;99.90
17039;DHT22;8636;55.750;13.202;2023-09-12T15:52:18;21.20;99.90
17039;DHT22;8636;55.750;13.202;2023-09-12T15:54:46;21.20;99.90
17039;DHT22;8636;55.750;13.202;2023-09-12T15:57:15;21.10;99.90
17039;DHT22;8636;55.750;13.202;2023-09-12T15:59:53;21.00;99.90
17039;DHT22;8636;55.750;13.202;2023-09-12T16:02:21;20.90;99.90
17039;DHT22;8636;55.750;13.202;2023-09-12T16:04:49;20.90;99.90